DISAG EDNY-EDFM
Flight info
| Callsign | DISAG |
|---|---|
| Flight time | 0h 44m |
| Altitude | 6000 |
| Route | ALAGO1E ALAGO Z5 LOKTA DCT EMPAX DCT LAMGO DCT BANUX DCT RINEX |
| Aircraft | BE58/L-SDFGRY/C |
Departure
| Time | 2026-04-23 08:07 |
|---|---|
| Airport | Bodensee Airport Friedrichshafen (EDNY) |
Arrival
| Time | 2026-04-23 08:52 |
|---|---|
| Airport | Mannheim-City Airport (EDFM) |
| Time | Latitude | Longitude | Altitude | Speed | Heading |
|---|---|---|---|---|---|
| 2026-04-23 08:02 | 47.66979 | 9.51361 | 1355 ft | 0 kts | 108° |
| 2026-04-23 08:04 | 47.66977 | 9.51368 | 1355 ft | 6 kts | 104° |
| 2026-04-23 08:05 | 47.67019 | 9.51369 | 1367 ft | 0 kts | 339° |
| 2026-04-23 08:05 | 47.67033 | 9.51351 | 1369 ft | 8 kts | 316° |
| 2026-04-23 08:05 | 47.67077 | 9.51298 | 1371 ft | 8 kts | 321° |
| 2026-04-23 08:06 | 47.67088 | 9.51285 | 1371 ft | 0 kts | 321° |
| 2026-04-23 08:06 | 47.67090 | 9.51283 | 1371 ft | 4 kts | 321° |
| 2026-04-23 08:06 | 47.67145 | 9.51217 | 1373 ft | 8 kts | 312° |
| 2026-04-23 08:07 | 47.67161 | 9.51216 | 1373 ft | 0 kts | 59° |
| 2026-04-23 08:07 | 47.67329 | 9.51646 | 1387 ft | 98 kts | 60° |
| 2026-04-23 08:07 | 47.67779 | 9.52681 | 1740 ft | 137 kts | 57° |
| 2026-04-23 08:07 | 47.68336 | 9.53929 | 2364 ft | 152 kts | 62° |
| 2026-04-23 08:08 | 47.68783 | 9.55323 | 3216 ft | 150 kts | 64° |
| 2026-04-23 08:08 | 47.69286 | 9.56685 | 4024 ft | 151 kts | 62° |
| 2026-04-23 08:08 | 47.69804 | 9.58050 | 4735 ft | 152 kts | 62° |
| 2026-04-23 08:08 | 47.70333 | 9.59415 | 5358 ft | 154 kts | 61° |
| 2026-04-23 08:09 | 47.70867 | 9.60807 | 5964 ft | 156 kts | 62° |
| 2026-04-23 08:09 | 47.71406 | 9.62207 | 6477 ft | 156 kts | 61° |
| 2026-04-23 08:09 | 47.71952 | 9.63615 | 6915 ft | 158 kts | 61° |
| 2026-04-23 08:09 | 47.72508 | 9.65026 | 7315 ft | 159 kts | 55° |
| 2026-04-23 08:10 | 47.73437 | 9.65876 | 7720 ft | 164 kts | 14° |
| 2026-04-23 08:10 | 47.74587 | 9.65718 | 8096 ft | 172 kts | 344° |
| 2026-04-23 08:10 | 47.76602 | 9.63661 | 8939 ft | 177 kts | 328° |
| 2026-04-23 08:11 | 47.77581 | 9.62571 | 9311 ft | 178 kts | 327° |
| 2026-04-23 08:11 | 47.78568 | 9.61450 | 9635 ft | 179 kts | 328° |
| 2026-04-23 08:11 | 47.79564 | 9.60331 | 9980 ft | 180 kts | 328° |
| 2026-04-23 08:11 | 47.80560 | 9.59209 | 10304 ft | 180 kts | 328° |
| 2026-04-23 08:12 | 47.81591 | 9.58059 | 10343 ft | 190 kts | 328° |
| 2026-04-23 08:12 | 47.82661 | 9.56864 | 10351 ft | 192 kts | 328° |
| 2026-04-23 08:12 | 47.83725 | 9.55666 | 10352 ft | 192 kts | 327° |
| 2026-04-23 08:12 | 47.84779 | 9.54472 | 10352 ft | 190 kts | 327° |
| 2026-04-23 08:13 | 47.85829 | 9.53285 | 10344 ft | 188 kts | 327° |
| 2026-04-23 08:13 | 47.86869 | 9.52115 | 10343 ft | 187 kts | 328° |
| 2026-04-23 08:13 | 47.87904 | 9.50947 | 10342 ft | 187 kts | 327° |
| 2026-04-23 08:13 | 47.88943 | 9.49778 | 10341 ft | 187 kts | 328° |
| 2026-04-23 08:14 | 47.89978 | 9.48612 | 10345 ft | 186 kts | 327° |
| 2026-04-23 08:14 | 47.91016 | 9.47438 | 10342 ft | 188 kts | 327° |
| 2026-04-23 08:14 | 47.92060 | 9.46258 | 10343 ft | 188 kts | 327° |
| 2026-04-23 08:14 | 47.93098 | 9.45087 | 10340 ft | 187 kts | 328° |
| 2026-04-23 08:15 | 47.94132 | 9.43918 | 10339 ft | 186 kts | 327° |
| 2026-04-23 08:15 | 47.95162 | 9.42749 | 10344 ft | 188 kts | 327° |
| 2026-04-23 08:15 | 47.96190 | 9.41588 | 10346 ft | 188 kts | 327° |
| 2026-04-23 08:15 | 47.97236 | 9.40408 | 10345 ft | 188 kts | 328° |
| 2026-04-23 08:16 | 47.98282 | 9.39220 | 10342 ft | 189 kts | 327° |
| 2026-04-23 08:16 | 47.99324 | 9.38037 | 10338 ft | 187 kts | 327° |
| 2026-04-23 08:16 | 48.00356 | 9.36866 | 10343 ft | 186 kts | 327° |
| 2026-04-23 08:16 | 48.01395 | 9.35692 | 10344 ft | 188 kts | 327° |
| 2026-04-23 08:17 | 48.02438 | 9.34503 | 10342 ft | 189 kts | 327° |
| 2026-04-23 08:17 | 48.03479 | 9.33318 | 10343 ft | 188 kts | 327° |
| 2026-04-23 08:17 | 48.04523 | 9.32135 | 10342 ft | 188 kts | 327° |
| 2026-04-23 08:17 | 48.05565 | 9.30957 | 10340 ft | 187 kts | 327° |
| 2026-04-23 08:18 | 48.06594 | 9.29778 | 10341 ft | 187 kts | 327° |
| 2026-04-23 08:18 | 48.07629 | 9.28601 | 10337 ft | 186 kts | 327° |
| 2026-04-23 08:18 | 48.08665 | 9.27425 | 10342 ft | 187 kts | 327° |
| 2026-04-23 08:18 | 48.09698 | 9.26244 | 10342 ft | 187 kts | 327° |
| 2026-04-23 08:19 | 48.10730 | 9.25066 | 10342 ft | 186 kts | 327° |
| 2026-04-23 08:19 | 48.11757 | 9.23894 | 10338 ft | 185 kts | 327° |
| 2026-04-23 08:19 | 48.12783 | 9.22722 | 10339 ft | 185 kts | 327° |
| 2026-04-23 08:19 | 48.13807 | 9.21556 | 10341 ft | 186 kts | 327° |
| 2026-04-23 08:20 | 48.14838 | 9.20381 | 10339 ft | 186 kts | 327° |
| 2026-04-23 08:20 | 48.15867 | 9.19199 | 10346 ft | 186 kts | 327° |
| 2026-04-23 08:20 | 48.16929 | 9.18106 | 10341 ft | 184 kts | 339° |
| 2026-04-23 08:20 | 48.18107 | 9.17404 | 10346 ft | 182 kts | 342° |
| 2026-04-23 08:21 | 48.19279 | 9.16673 | 10347 ft | 182 kts | 341° |
| 2026-04-23 08:21 | 48.20440 | 9.15940 | 10351 ft | 184 kts | 341° |
| 2026-04-23 08:21 | 48.21624 | 9.15204 | 10340 ft | 184 kts | 341° |
| 2026-04-23 08:21 | 48.22799 | 9.14468 | 10346 ft | 182 kts | 341° |
| 2026-04-23 08:22 | 48.23972 | 9.13738 | 10352 ft | 182 kts | 341° |
| 2026-04-23 08:22 | 48.25148 | 9.13008 | 10350 ft | 183 kts | 341° |
| 2026-04-23 08:22 | 48.26319 | 9.12273 | 10340 ft | 182 kts | 341° |
| 2026-04-23 08:22 | 48.27489 | 9.11545 | 10344 ft | 182 kts | 341° |
| 2026-04-23 08:23 | 48.28657 | 9.10817 | 10345 ft | 182 kts | 341° |
| 2026-04-23 08:23 | 48.29830 | 9.10082 | 10347 ft | 184 kts | 341° |
| 2026-04-23 08:23 | 48.31012 | 9.09346 | 10346 ft | 184 kts | 341° |
| 2026-04-23 08:23 | 48.32196 | 9.08605 | 10345 ft | 185 kts | 341° |
| 2026-04-23 08:24 | 48.33376 | 9.07866 | 10345 ft | 183 kts | 341° |
| 2026-04-23 08:24 | 48.34552 | 9.07128 | 10350 ft | 184 kts | 341° |
| 2026-04-23 08:24 | 48.35738 | 9.06390 | 10349 ft | 183 kts | 341° |
| 2026-04-23 08:24 | 48.36901 | 9.05651 | 10349 ft | 184 kts | 341° |
| 2026-04-23 08:25 | 48.38081 | 9.04922 | 10344 ft | 183 kts | 341° |
| 2026-04-23 08:25 | 48.39253 | 9.04188 | 10348 ft | 182 kts | 341° |
| 2026-04-23 08:25 | 48.40426 | 9.03450 | 10349 ft | 183 kts | 341° |
| 2026-04-23 08:25 | 48.41606 | 9.02709 | 10352 ft | 183 kts | 341° |
| 2026-04-23 08:26 | 48.42785 | 9.01968 | 10360 ft | 184 kts | 341° |
| 2026-04-23 08:26 | 48.43966 | 9.01224 | 10355 ft | 184 kts | 341° |
| 2026-04-23 08:26 | 48.45142 | 9.00486 | 10358 ft | 182 kts | 341° |
| 2026-04-23 08:26 | 48.46313 | 8.99759 | 10353 ft | 181 kts | 344° |
| 2026-04-23 08:27 | 48.47506 | 8.99158 | 10357 ft | 181 kts | 345° |
| 2026-04-23 08:27 | 48.48698 | 8.98543 | 10358 ft | 182 kts | 345° |
| 2026-04-23 08:27 | 48.49892 | 8.97932 | 10353 ft | 181 kts | 345° |
| 2026-04-23 08:27 | 48.51089 | 8.97315 | 10356 ft | 182 kts | 345° |
| 2026-04-23 08:28 | 48.52287 | 8.96698 | 10367 ft | 182 kts | 345° |
| 2026-04-23 08:28 | 48.53490 | 8.96083 | 10364 ft | 182 kts | 345° |
| 2026-04-23 08:28 | 48.54673 | 8.95472 | 10367 ft | 182 kts | 345° |
| 2026-04-23 08:28 | 48.55875 | 8.94856 | 10370 ft | 182 kts | 345° |
| 2026-04-23 08:29 | 48.57077 | 8.94240 | 10369 ft | 182 kts | 345° |
| 2026-04-23 08:29 | 48.58273 | 8.93621 | 10360 ft | 181 kts | 345° |
| 2026-04-23 08:29 | 48.59461 | 8.93010 | 10358 ft | 181 kts | 345° |
| 2026-04-23 08:29 | 48.60651 | 8.92398 | 10366 ft | 180 kts | 345° |
| 2026-04-23 08:30 | 48.61836 | 8.91787 | 10363 ft | 180 kts | 345° |
| 2026-04-23 08:30 | 48.63026 | 8.91175 | 10366 ft | 181 kts | 345° |
| 2026-04-23 08:30 | 48.64219 | 8.90559 | 10369 ft | 181 kts | 345° |
| 2026-04-23 08:30 | 48.65416 | 8.89940 | 10363 ft | 182 kts | 345° |
| 2026-04-23 08:31 | 48.66611 | 8.89323 | 10364 ft | 181 kts | 345° |
| 2026-04-23 08:31 | 48.67805 | 8.88706 | 10365 ft | 182 kts | 345° |
| 2026-04-23 08:31 | 48.69004 | 8.88091 | 10365 ft | 182 kts | 345° |
| 2026-04-23 08:31 | 48.70201 | 8.87464 | 10365 ft | 182 kts | 345° |
| 2026-04-23 08:32 | 48.71398 | 8.86851 | 10366 ft | 181 kts | 345° |
| 2026-04-23 08:32 | 48.72596 | 8.86227 | 10366 ft | 182 kts | 345° |
| 2026-04-23 08:32 | 48.73795 | 8.85609 | 10363 ft | 181 kts | 345° |
| 2026-04-23 08:32 | 48.74988 | 8.84992 | 10369 ft | 182 kts | 345° |
| 2026-04-23 08:33 | 48.76185 | 8.84367 | 10367 ft | 182 kts | 344° |
| 2026-04-23 08:33 | 48.77383 | 8.83749 | 10369 ft | 182 kts | 345° |
| 2026-04-23 08:33 | 48.78588 | 8.83124 | 10370 ft | 183 kts | 344° |
| 2026-04-23 08:33 | 48.79794 | 8.82498 | 10366 ft | 183 kts | 344° |
| 2026-04-23 08:34 | 48.80997 | 8.81872 | 10366 ft | 182 kts | 344° |
| 2026-04-23 08:34 | 48.82190 | 8.81252 | 10368 ft | 184 kts | 344° |
| 2026-04-23 08:34 | 48.83400 | 8.80621 | 10363 ft | 184 kts | 344° |
| 2026-04-23 08:34 | 48.84609 | 8.79995 | 10361 ft | 183 kts | 344° |
| 2026-04-23 08:35 | 48.85806 | 8.79370 | 10357 ft | 182 kts | 344° |
| 2026-04-23 08:35 | 48.87002 | 8.78747 | 10360 ft | 182 kts | 344° |
| 2026-04-23 08:35 | 48.88199 | 8.78125 | 10363 ft | 181 kts | 344° |
| 2026-04-23 08:35 | 48.89389 | 8.77508 | 10360 ft | 181 kts | 345° |
| 2026-04-23 08:36 | 48.90583 | 8.76908 | 10359 ft | 181 kts | 345° |
| 2026-04-23 08:36 | 48.91778 | 8.76304 | 10363 ft | 182 kts | 345° |
| 2026-04-23 08:36 | 48.92986 | 8.75693 | 10366 ft | 183 kts | 345° |
| 2026-04-23 08:36 | 48.94199 | 8.75077 | 10365 ft | 183 kts | 345° |
| 2026-04-23 08:37 | 48.95406 | 8.74465 | 10367 ft | 183 kts | 345° |
| 2026-04-23 08:37 | 48.96612 | 8.73852 | 10365 ft | 182 kts | 344° |
| 2026-04-23 08:37 | 48.97801 | 8.73247 | 10362 ft | 182 kts | 345° |
| 2026-04-23 08:37 | 48.99001 | 8.72639 | 10359 ft | 181 kts | 345° |
| 2026-04-23 08:38 | 49.00194 | 8.72029 | 10370 ft | 181 kts | 345° |
| 2026-04-23 08:38 | 49.01404 | 8.71418 | 10368 ft | 183 kts | 345° |
| 2026-04-23 08:38 | 49.02614 | 8.70800 | 10368 ft | 183 kts | 344° |
| 2026-04-23 08:38 | 49.03817 | 8.70186 | 10367 ft | 183 kts | 345° |
| 2026-04-23 08:39 | 49.05024 | 8.69568 | 10367 ft | 182 kts | 345° |
| 2026-04-23 08:39 | 49.06228 | 8.68957 | 10367 ft | 182 kts | 345° |
| 2026-04-23 08:39 | 49.07413 | 8.68351 | 10366 ft | 182 kts | 344° |
| 2026-04-23 08:39 | 49.08617 | 8.67733 | 10367 ft | 183 kts | 345° |
| 2026-04-23 08:40 | 49.09824 | 8.67122 | 10362 ft | 181 kts | 344° |
| 2026-04-23 08:40 | 49.11028 | 8.66562 | 10365 ft | 181 kts | 353° |
| 2026-04-23 08:40 | 49.12287 | 8.66404 | 10176 ft | 182 kts | 358° |
| 2026-04-23 08:40 | 49.13539 | 8.66233 | 10011 ft | 179 kts | 357° |
| 2026-04-23 08:41 | 49.14772 | 8.66054 | 9876 ft | 177 kts | 357° |
| 2026-04-23 08:41 | 49.15998 | 8.65885 | 9687 ft | 177 kts | 358° |
| 2026-04-23 08:41 | 49.17227 | 8.65718 | 9487 ft | 177 kts | 357° |
| 2026-04-23 08:41 | 49.18470 | 8.65546 | 9233 ft | 181 kts | 357° |
| 2026-04-23 08:42 | 49.19729 | 8.65378 | 8981 ft | 182 kts | 357° |
| 2026-04-23 08:42 | 49.20992 | 8.65203 | 8725 ft | 182 kts | 357° |
| 2026-04-23 08:42 | 49.22255 | 8.65029 | 8475 ft | 182 kts | 357° |
| 2026-04-23 08:42 | 49.23517 | 8.64858 | 8224 ft | 182 kts | 357° |
| 2026-04-23 08:43 | 49.24784 | 8.64680 | 7978 ft | 183 kts | 357° |
| 2026-04-23 08:43 | 49.26049 | 8.64509 | 7733 ft | 183 kts | 357° |
| 2026-04-23 08:43 | 49.27322 | 8.64331 | 7463 ft | 180 kts | 357° |
| 2026-04-23 08:43 | 49.28526 | 8.64164 | 7151 ft | 169 kts | 357° |
| 2026-04-23 08:44 | 49.29661 | 8.63978 | 6863 ft | 165 kts | 349° |
| 2026-04-23 08:44 | 49.30663 | 8.63100 | 6550 ft | 169 kts | 324° |
| 2026-04-23 08:44 | 49.31569 | 8.61943 | 6241 ft | 170 kts | 323° |
| 2026-04-23 08:44 | 49.32469 | 8.60788 | 5978 ft | 168 kts | 324° |
| 2026-04-23 08:45 | 49.33363 | 8.59639 | 5718 ft | 167 kts | 323° |
| 2026-04-23 08:45 | 49.34252 | 8.58493 | 5463 ft | 167 kts | 324° |
| 2026-04-23 08:45 | 49.35132 | 8.57353 | 5213 ft | 165 kts | 323° |
| 2026-04-23 08:45 | 49.36010 | 8.56214 | 4955 ft | 166 kts | 323° |
| 2026-04-23 08:46 | 49.36894 | 8.55065 | 4705 ft | 166 kts | 323° |
| 2026-04-23 08:46 | 49.37774 | 8.53935 | 4452 ft | 168 kts | 324° |
| 2026-04-23 08:46 | 49.38676 | 8.52775 | 4201 ft | 170 kts | 323° |
| 2026-04-23 08:46 | 49.39587 | 8.51611 | 3951 ft | 171 kts | 323° |
| 2026-04-23 08:47 | 49.40509 | 8.50446 | 3695 ft | 172 kts | 323° |
| 2026-04-23 08:47 | 49.41428 | 8.49286 | 3441 ft | 170 kts | 323° |
| 2026-04-23 08:47 | 49.42339 | 8.48141 | 3191 ft | 169 kts | 324° |
| 2026-04-23 08:47 | 49.43253 | 8.47006 | 2934 ft | 167 kts | 323° |
| 2026-04-23 08:48 | 49.44012 | 8.45701 | 2659 ft | 164 kts | 295° |
| 2026-04-23 08:48 | 49.44164 | 8.44017 | 2385 ft | 154 kts | 274° |
| 2026-04-23 08:48 | 49.44233 | 8.42431 | 2119 ft | 144 kts | 289° |
| 2026-04-23 08:48 | 49.44861 | 8.41417 | 2003 ft | 126 kts | 348° |
| 2026-04-23 08:49 | 49.45674 | 8.41397 | 1991 ft | 113 kts | 4° |
| 2026-04-23 08:49 | 49.46457 | 8.41414 | 1995 ft | 112 kts | 2° |
| 2026-04-23 08:49 | 49.47238 | 8.41439 | 1995 ft | 111 kts | 5° |
| 2026-04-23 08:49 | 49.47835 | 8.42037 | 2004 ft | 109 kts | 69° |
| 2026-04-23 08:50 | 49.47813 | 8.43212 | 2030 ft | 113 kts | 99° |
| 2026-04-23 08:50 | 49.47630 | 8.44401 | 1958 ft | 117 kts | 99° |
| 2026-04-23 08:50 | 49.47490 | 8.45612 | 1674 ft | 117 kts | 95° |
| 2026-04-23 08:50 | 49.47422 | 8.46849 | 1257 ft | 116 kts | 93° |
| 2026-04-23 08:51 | 49.47379 | 8.48077 | 843 ft | 114 kts | 91° |
| 2026-04-23 08:51 | 49.47344 | 8.49228 | 575 ft | 94 kts | 92° |
| 2026-04-23 08:51 | 49.47317 | 8.50152 | 413 ft | 81 kts | 90° |
| 2026-04-23 08:51 | 49.47289 | 8.50975 | 322 ft | 66 kts | 90° |
| 2026-04-23 08:52 | 49.47268 | 8.51541 | 320 ft | 43 kts | 93° |
| 2026-04-23 08:52 | 49.47254 | 8.51927 | 321 ft | 27 kts | 93° |
| 2026-04-23 08:52 | 49.47252 | 8.52060 | 320 ft | 17 kts | 94° |
| 2026-04-23 08:52 | 49.47276 | 8.52150 | 321 ft | 9 kts | 1° |
| 2026-04-23 08:53 | 49.47341 | 8.52154 | 321 ft | 10 kts | 5° |
| 2026-04-23 08:53 | 49.47409 | 8.52163 | 321 ft | 10 kts | 3° |
| 2026-04-23 08:53 | 49.47480 | 8.52169 | 321 ft | 10 kts | 3° |
| 2026-04-23 08:53 | 49.47554 | 8.52176 | 321 ft | 11 kts | 4° |
| 2026-04-23 08:54 | 49.47583 | 8.52130 | 321 ft | 7 kts | 262° |
| 2026-04-23 08:54 | 49.47558 | 8.52112 | 320 ft | 0 kts | 182° |